createdAt,value
2018-09-06T00:01:06.555Z,70.90
2018-09-06T00:03:34.673Z,71.00
2018-09-06T00:06:02.210Z,70.90
2018-09-06T00:08:29.702Z,71.10
2018-09-06T00:16:45.361Z,71.50
2018-09-06T00:19:13.855Z,71.20
2018-09-06T00:21:43.827Z,72.30
2018-09-06T00:24:11.820Z,71.80
2018-09-06T00:27:53.518Z,72.00
2018-09-06T00:33:25.219Z,71.50
2018-09-06T00:38:28.717Z,71.90
2018-09-06T00:40:56.963Z,73.00
2018-09-06T00:46:40.354Z,73.60
2018-09-06T00:49:08.009Z,73.70
2018-09-06T00:54:29.690Z,73.50
2018-09-06T00:56:58.427Z,73.40
2018-09-06T00:59:26.186Z,73.50
2018-09-06T01:02:07.421Z,73.80
2018-09-06T01:07:28.638Z,74.40
2018-09-06T01:09:56.252Z,74.20
2018-09-06T01:18:02.731Z,73.90
2018-09-06T01:21:01.662Z,73.60
2018-09-06T01:23:29.213Z,73.90
2018-09-06T01:25:56.919Z,74.70
2018-09-06T01:28:25.276Z,75.20
2018-09-06T01:30:52.834Z,75.80
2018-09-06T01:33:20.320Z,76.30
2018-09-06T01:35:53.418Z,76.40
2018-09-06T01:38:20.966Z,75.70
2018-09-06T01:41:11.578Z,75.80
2018-09-06T01:43:39.134Z,77.40
2018-09-06T01:49:14.626Z,78.80
2018-09-06T02:01:58.540Z,80.20
2018-09-06T02:04:33.688Z,80.00
2018-09-06T02:07:42.731Z,80.10
2018-09-06T02:10:26.815Z,80.30
2018-09-06T02:13:03.082Z,80.40
2018-09-06T02:18:33.795Z,83.00
2018-09-06T02:24:34.646Z,81.50
2018-09-06T02:32:45.878Z,82.80
2018-09-06T02:35:14.334Z,83.10
2018-09-06T02:40:37.647Z,82.70
2018-09-06T02:43:22.444Z,82.80
2018-09-06T02:46:13.739Z,82.80
2018-09-06T02:55:25.055Z,82.20
2018-09-06T03:06:47.706Z,84.60
2018-09-06T03:09:15.424Z,85.00
2018-09-06T03:11:50.500Z,85.30
2018-09-06T03:20:24.048Z,85.20
2018-09-06T03:22:56.219Z,84.90
2018-09-06T03:25:24.272Z,84.70
2018-09-06T03:30:54.760Z,85.00
2018-09-06T03:36:25.182Z,84.60
2018-09-06T03:38:52.765Z,84.50
2018-09-06T03:44:21.760Z,84.50
2018-09-06T03:49:59.854Z,84.60
2018-09-06T03:55:34.417Z,84.20
2018-09-06T03:58:02.276Z,83.70
2018-09-06T04:00:30.220Z,83.60
2018-09-06T04:02:58.418Z,83.40
2018-09-06T04:05:28.089Z,83.40
2018-09-06T04:10:53.617Z,83.50
2018-09-06T04:13:22.652Z,83.30
2018-09-06T04:15:53.233Z,83.20
2018-09-06T04:18:23.930Z,83.00
2018-09-06T04:20:55.516Z,82.80
2018-09-06T04:23:24.028Z,82.90
2018-09-06T04:25:51.657Z,83.00
2018-09-06T04:28:19.426Z,82.90
2018-09-06T04:30:47.069Z,82.80
2018-09-06T04:33:25.044Z,82.90
2018-09-06T04:35:52.680Z,83.10
2018-09-06T04:41:22.860Z,83.50
2018-09-06T04:43:50.504Z,83.50
2018-09-06T04:46:17.969Z,83.60
2018-09-06T04:48:50.270Z,83.50
2018-09-06T04:51:17.806Z,83.40
2018-09-06T04:53:45.986Z,83.50
2018-09-06T04:56:15.804Z,83.30
2018-09-06T04:58:43.768Z,83.10
2018-09-06T05:01:11.566Z,83.30
2018-09-06T05:03:39.471Z,83.10
2018-09-06T05:09:10.407Z,83.70
2018-09-06T05:11:40.451Z,83.40
2018-09-06T05:17:01.340Z,83.10
2018-09-06T05:19:34.566Z,83.00
2018-09-06T05:22:03.067Z,82.90
2018-09-06T05:24:30.846Z,82.80
2018-09-06T05:26:58.274Z,82.50
2018-09-06T05:29:34.219Z,82.50
2018-09-06T05:32:01.829Z,82.30
2018-09-06T05:34:29.417Z,82.20
2018-09-06T05:36:57.128Z,82.10
2018-09-06T05:39:36.268Z,81.80
2018-09-06T05:48:12.231Z,81.90
2018-09-06T05:53:32.783Z,81.80
2018-09-06T05:58:50.538Z,81.80
2018-09-06T06:04:21.027Z,81.90
2018-09-06T06:06:49.507Z,81.70
2018-09-06T06:09:17.212Z,81.70
2018-09-06T06:11:48.373Z,81.00
2018-09-06T06:14:16.087Z,80.40
2018-09-06T06:16:44.140Z,80.90
2018-09-06T06:19:28.010Z,81.20
2018-09-06T06:21:55.454Z,81.60
2018-09-06T06:24:22.974Z,81.60
2018-09-06T06:26:50.607Z,80.80
2018-09-06T06:29:18.293Z,81.20
2018-09-06T06:35:00.770Z,80.00
2018-09-06T06:37:28.576Z,79.70
2018-09-06T06:39:57.850Z,79.10
2018-09-06T06:51:35.039Z,80.60
2018-09-06T06:57:20.049Z,79.50
2018-09-06T07:00:06.035Z,79.90
2018-09-06T07:02:34.218Z,79.90
2018-09-06T07:07:54.070Z,78.90
2018-09-06T07:10:21.568Z,78.80
2018-09-06T07:12:49.112Z,79.10
2018-09-06T07:15:37.033Z,79.30
2018-09-06T07:24:07.861Z,78.30
2018-09-06T07:26:35.632Z,78.80
2018-09-06T07:35:09.072Z,79.60
2018-09-06T07:37:39.014Z,79.80
2018-09-06T07:40:06.705Z,79.80
2018-09-06T07:42:34.331Z,79.70
2018-09-06T07:45:02.393Z,78.90
2018-09-06T07:47:29.859Z,78.40
2018-09-06T07:49:57.352Z,77.50
2018-09-06T07:52:24.918Z,77.40
2018-09-06T07:54:52.250Z,78.00
2018-09-06T07:57:19.696Z,78.30
2018-09-06T07:59:47.228Z,78.50
2018-09-06T08:02:14.759Z,78.10
2018-09-06T08:04:42.183Z,75.60
2018-09-06T08:07:09.788Z,73.80
2018-09-06T08:09:37.309Z,73.90
2018-09-06T08:12:04.832Z,74.20
2018-09-06T08:14:32.238Z,74.30
2018-09-06T08:16:59.654Z,74.30
2018-09-06T08:19:27.080Z,74.00
2018-09-06T08:21:54.588Z,74.10
2018-09-06T08:24:22.219Z,72.60
2018-09-06T08:26:50.456Z,70.50
2018-09-06T08:29:17.994Z,70.00
2018-09-06T08:31:50.694Z,69.80
2018-09-06T08:34:19.595Z,68.80
2018-09-06T08:36:47.098Z,69.00
2018-09-06T08:39:15.089Z,69.30
2018-09-06T08:41:42.615Z,70.80
2018-09-06T08:44:15.444Z,68.60
2018-09-06T08:46:43.109Z,68.20
2018-09-06T08:49:10.587Z,67.70
2018-09-06T08:51:42.232Z,67.90
2018-09-06T08:54:09.829Z,68.50
2018-09-06T08:59:42.912Z,69.20
2018-09-06T09:02:11.383Z,66.70
2018-09-06T09:04:43.081Z,67.10
2018-09-06T09:07:16.817Z,64.80
2018-09-06T09:09:44.353Z,65.00
2018-09-06T09:12:11.994Z,64.40
2018-09-06T09:14:40.303Z,64.50
2018-09-06T09:17:19.111Z,62.50
2018-09-06T09:19:50.075Z,62.20
2018-09-06T09:22:53.207Z,60.80
2018-09-06T09:25:21.223Z,59.50
2018-09-06T09:27:48.768Z,59.10
2018-09-06T09:30:16.260Z,57.90
2018-09-06T09:32:50.450Z,56.70
2018-09-06T09:35:21.669Z,57.50
2018-09-06T09:41:03.887Z,55.60
2018-09-06T09:43:50.885Z,56.10
2018-09-06T09:48:46.249Z,55.60
2018-09-06T09:51:15.273Z,54.60
2018-09-06T09:53:53.431Z,54.20
2018-09-06T09:56:21.014Z,54.20
2018-09-06T09:58:48.615Z,53.70
2018-09-06T10:01:24.269Z,53.10
2018-09-06T10:03:57.690Z,52.00
2018-09-06T10:11:20.806Z,50.40
2018-09-06T10:19:44.158Z,51.80
2018-09-06T10:22:12.634Z,52.90
2018-09-06T10:30:32.835Z,50.20
2018-09-06T10:33:00.940Z,50.30
2018-09-06T10:35:29.205Z,49.70
2018-09-06T10:37:57.200Z,49.20
2018-09-06T10:40:24.904Z,49.60
2018-09-06T10:43:04.155Z,48.10
2018-09-06T10:45:32.105Z,48.70
2018-09-06T10:47:59.859Z,49.00
2018-09-06T10:50:27.705Z,49.10
2018-09-06T10:52:55.805Z,50.20
2018-09-06T10:55:23.412Z,48.60
2018-09-06T10:57:50.883Z,48.40
2018-09-06T11:00:18.589Z,48.60
2018-09-06T11:02:46.356Z,50.00
2018-09-06T11:07:55.664Z,49.20
2018-09-06T11:10:23.211Z,49.10
2018-09-06T11:12:51.513Z,50.20
2018-09-06T11:15:19.099Z,49.70
2018-09-06T11:17:48.341Z,48.10
2018-09-06T11:26:02.418Z,48.50
2018-09-06T11:28:30.446Z,46.70
2018-09-06T11:30:58.692Z,47.40
2018-09-06T11:33:49.716Z,46.80
2018-09-06T11:36:17.470Z,46.20
2018-09-06T11:38:45.088Z,45.20
2018-09-06T11:41:12.704Z,45.80
2018-09-06T11:43:40.801Z,45.60
2018-09-06T11:46:12.398Z,46.00
2018-09-06T11:58:05.530Z,45.70
2018-09-06T12:00:35.065Z,44.00
2018-09-06T12:09:04.541Z,43.60
2018-09-06T12:11:32.380Z,43.50
2018-09-06T12:17:04.084Z,43.40
2018-09-06T12:22:33.150Z,42.20
2018-09-06T12:25:00.987Z,41.60
2018-09-06T12:27:47.626Z,41.50
2018-09-06T12:33:19.689Z,41.00
2018-09-06T12:42:17.672Z,39.80
2018-09-06T12:57:32.810Z,40.00
2018-09-06T13:00:10.914Z,40.70
2018-09-06T13:08:47.884Z,40.20
2018-09-06T13:14:18.882Z,39.70
2018-09-06T13:19:50.432Z,39.50
2018-09-06T13:42:58.212Z,43.90
2018-09-06T13:45:46.816Z,44.30
2018-09-06T13:48:14.222Z,46.60
2018-09-06T13:50:41.745Z,45.80
2018-09-06T13:53:09.369Z,47.40
2018-09-06T13:55:36.880Z,49.50
2018-09-06T13:58:16.254Z,49.80
2018-09-06T14:00:45.723Z,50.80
2018-09-06T14:03:13.316Z,51.10
2018-09-06T14:05:47.474Z,51.40
2018-09-06T14:11:20.541Z,52.00
2018-09-06T14:14:08.850Z,54.80
2018-09-06T14:16:36.477Z,54.70
2018-09-06T14:22:07.024Z,56.60
2018-09-06T14:24:34.614Z,55.90
2018-09-06T14:27:17.786Z,58.20
2018-09-06T14:38:47.676Z,57.50
2018-09-06T14:41:16.125Z,59.80
2018-09-06T14:43:52.361Z,59.30
2018-09-06T14:46:19.857Z,57.20
2018-09-06T14:48:47.373Z,56.40
2018-09-06T14:51:14.838Z,56.00
2018-09-06T14:53:42.416Z,56.50
2018-09-06T14:59:03.932Z,56.40
2018-09-06T15:01:31.477Z,56.90
2018-09-06T15:04:00.422Z,57.50
2018-09-06T15:09:20.940Z,56.30
2018-09-06T15:14:58.904Z,53.60
2018-09-06T15:17:48.411Z,53.60
2018-09-06T15:23:13.255Z,53.50
2018-09-06T15:26:23.483Z,54.50
2018-09-06T15:28:51.425Z,55.30
2018-09-06T15:34:28.981Z,56.40
2018-09-06T15:37:16.485Z,56.30
2018-09-06T15:53:01.926Z,57.20
2018-09-06T16:04:37.652Z,60.50
2018-09-06T16:10:08.636Z,62.10
2018-09-06T16:12:37.595Z,61.40
2018-09-06T16:15:17.801Z,61.60
2018-09-06T16:17:46.136Z,61.70
2018-09-06T16:20:22.102Z,61.50
2018-09-06T16:23:09.370Z,62.40
2018-09-06T16:25:37.065Z,63.10
2018-09-06T16:34:10.656Z,69.20
2018-09-06T16:36:59.695Z,69.90
2018-09-06T16:39:27.380Z,69.70
2018-09-06T16:41:57.075Z,71.40
2018-09-06T16:44:28.886Z,72.50
2018-09-06T16:47:25.412Z,72.60
2018-09-06T16:50:13.008Z,73.90
2018-09-06T16:53:02.083Z,74.50
2018-09-06T16:56:02.747Z,75.50
2018-09-06T17:04:52.498Z,77.20
2018-09-06T17:16:22.060Z,80.00
2018-09-06T17:18:49.772Z,79.20
2018-09-06T17:21:36.453Z,80.70
2018-09-06T17:27:14.187Z,78.80
2018-09-06T17:33:59.743Z,79.60
2018-09-06T17:36:50.352Z,81.10
2018-09-06T17:39:31.319Z,81.90
2018-09-06T17:42:08.679Z,83.10
2018-09-06T17:44:36.132Z,83.80
2018-09-06T17:50:04.491Z,84.30
2018-09-06T17:52:31.934Z,83.90
2018-09-06T17:54:59.426Z,84.30
2018-09-06T17:57:26.878Z,85.50
2018-09-06T18:00:02.696Z,85.70
2018-09-06T18:02:41.737Z,87.30
2018-09-06T18:05:09.240Z,86.50
2018-09-06T18:07:36.833Z,86.50
2018-09-06T18:10:05.041Z,85.90
2018-09-06T18:12:34.612Z,86.40
2018-09-06T18:15:03.237Z,86.30
2018-09-06T18:17:30.838Z,87.10
2018-09-06T18:19:58.389Z,86.50
2018-09-06T18:22:25.889Z,86.70
2018-09-06T18:24:53.891Z,86.50
2018-09-06T18:27:21.343Z,87.40
2018-09-06T18:29:52.929Z,87.60
2018-09-06T18:32:20.453Z,87.20
2018-09-06T18:34:48.270Z,86.90
2018-09-06T18:37:15.765Z,88.30
2018-09-06T18:39:51.948Z,90.10
2018-09-06T18:42:19.492Z,90.40
2018-09-06T18:47:43.613Z,89.40
2018-09-06T18:50:21.030Z,90.00
2018-09-06T18:52:48.690Z,89.90
2018-09-06T18:55:16.304Z,88.70
2018-09-06T18:57:43.805Z,88.60
2018-09-06T19:00:11.295Z,88.40
2018-09-06T19:02:38.781Z,89.90
2018-09-06T19:05:06.352Z,90.00
2018-09-06T19:10:36.556Z,90.10
2018-09-06T19:13:22.004Z,90.00
2018-09-06T19:15:57.324Z,89.80
2018-09-06T19:21:32.620Z,90.50
2018-09-06T19:24:20.515Z,90.40
2018-09-06T19:27:23.418Z,90.00
2018-09-06T19:29:50.938Z,90.20
2018-09-06T19:32:18.489Z,90.40
2018-09-06T19:34:46.188Z,90.40
2018-09-06T19:37:13.955Z,91.10
2018-09-06T19:39:41.536Z,90.40
2018-09-06T19:42:09.044Z,90.40
2018-09-06T19:50:24.158Z,91.20
2018-09-06T19:52:51.684Z,91.30
2018-09-06T19:55:19.215Z,91.30
2018-09-06T19:57:56.892Z,91.40
2018-09-06T20:00:24.345Z,91.80
2018-09-06T20:02:54.077Z,91.60
2018-09-06T20:05:21.722Z,91.60
2018-09-06T20:07:49.258Z,91.70
2018-09-06T20:10:16.754Z,91.80
2018-09-06T20:13:07.343Z,91.90
2018-09-06T20:18:40.567Z,92.70
2018-09-06T20:21:08.157Z,92.70
2018-09-06T20:26:51.660Z,93.00
2018-09-06T20:29:21.408Z,92.40
2018-09-06T20:37:39.827Z,91.70
2018-09-06T20:40:29.795Z,91.60
2018-09-06T20:42:57.560Z,91.40
2018-09-06T20:51:27.277Z,91.50
2018-09-06T20:53:56.628Z,91.80
2018-09-06T21:05:15.993Z,92.20
2018-09-06T21:10:46.075Z,92.60
2018-09-06T21:13:32.239Z,92.00
2018-09-06T21:16:09.658Z,92.10
2018-09-06T21:18:37.182Z,92.20
2018-09-06T21:21:05.589Z,91.70
2018-09-06T21:23:33.200Z,91.80
2018-09-06T21:26:00.694Z,92.00
2018-09-06T21:28:50.539Z,92.20
2018-09-06T21:31:30.922Z,92.50
2018-09-06T21:33:58.634Z,92.40
2018-09-06T21:36:26.186Z,92.50
2018-09-06T21:38:53.669Z,92.60
2018-09-06T21:41:21.182Z,92.70
2018-09-06T21:44:10.430Z,92.60
2018-09-06T21:46:38.364Z,92.30
2018-09-06T21:49:06.100Z,92.60
2018-09-06T21:51:33.611Z,92.90
2018-09-06T21:54:02.541Z,93.30
2018-09-06T21:56:32.999Z,93.40
2018-09-06T21:59:10.487Z,93.40
2018-09-06T22:01:38.221Z,93.10
2018-09-06T22:04:06.724Z,93.70
2018-09-06T22:06:41.798Z,93.70
2018-09-06T22:09:18.472Z,93.90
2018-09-06T22:11:45.910Z,93.80
2018-09-06T22:14:15.235Z,93.60
2018-09-06T22:16:49.865Z,93.40
2018-09-06T22:19:17.360Z,93.20
2018-09-06T22:21:44.850Z,92.70
2018-09-06T22:24:20.307Z,92.40
2018-09-06T22:26:49.171Z,92.20
2018-09-06T22:29:16.869Z,92.40
2018-09-06T22:31:44.491Z,92.60
2018-09-06T22:34:12.127Z,92.50
2018-09-06T22:36:39.708Z,93.10
2018-09-06T22:48:16.104Z,93.30
2018-09-06T22:50:53.685Z,93.60
2018-09-06T22:53:21.947Z,93.10
2018-09-06T22:55:56.625Z,93.00
2018-09-06T22:58:32.685Z,92.90
2018-09-06T23:01:00.342Z,92.90
2018-09-06T23:03:49.522Z,92.80
2018-09-06T23:06:17.313Z,92.90
2018-09-06T23:08:45.740Z,93.10
2018-09-06T23:11:13.796Z,93.40
2018-09-06T23:13:44.545Z,93.70
2018-09-06T23:16:12.755Z,93.80
2018-09-06T23:18:40.546Z,93.80
2018-09-06T23:21:27.948Z,93.60
2018-09-06T23:23:55.465Z,93.50
2018-09-06T23:26:22.990Z,93.30
2018-09-06T23:28:50.487Z,93.20
2018-09-06T23:31:18.287Z,93.30
2018-09-06T23:33:48.035Z,93.30
2018-09-06T23:36:15.692Z,93.60
2018-09-06T23:38:43.472Z,93.90
2018-09-06T23:41:11.371Z,94.10
2018-09-06T23:43:39.581Z,94.30
2018-09-06T23:46:07.483Z,94.30
2018-09-06T23:48:36.549Z,93.80
2018-09-06T23:51:04.294Z,93.50
2018-09-06T23:53:31.893Z,93.10
2018-09-06T23:56:01.448Z,93.00
